sensor_id;sensor_type;location;lat;lon;timestamp;P1;durP1;ratioP1;P2;durP2;ratioP2
43744;SDS011;29359;53.048;8.732;2023-03-31T00:01:59;14.27;;;2.85;;
43744;SDS011;29359;53.048;8.732;2023-03-31T00:04:02;13.43;;;3.28;;
43744;SDS011;29359;53.048;8.732;2023-03-31T00:06:04;10.77;;;2.78;;
43744;SDS011;29359;53.048;8.732;2023-03-31T00:08:06;16.60;;;3.15;;
43744;SDS011;29359;53.048;8.732;2023-03-31T00:10:09;13.15;;;3.20;;
43744;SDS011;29359;53.048;8.732;2023-03-31T00:12:16;13.20;;;3.60;;
43744;SDS011;29359;53.048;8.732;2023-03-31T00:14:18;10.80;;;3.00;;
43744;SDS011;29359;53.048;8.732;2023-03-31T00:16:21;9.88;;;3.03;;
43744;SDS011;29359;53.048;8.732;2023-03-31T00:18:23;13.80;;;3.40;;
43744;SDS011;29359;53.048;8.732;2023-03-31T00:20:26;14.68;;;3.13;;
43744;SDS011;29359;53.048;8.732;2023-03-31T00:22:27;8.40;;;2.53;;
43744;SDS011;29359;53.048;8.732;2023-03-31T00:24:29;9.52;;;3.15;;
43744;SDS011;29359;53.048;8.732;2023-03-31T00:26:33;13.05;;;2.88;;
43744;SDS011;29359;53.048;8.732;2023-03-31T00:28:35;12.00;;;2.72;;
43744;SDS011;29359;53.048;8.732;2023-03-31T00:30:37;10.80;;;2.67;;
43744;SDS011;29359;53.048;8.732;2023-03-31T00:32:39;8.85;;;3.00;;
43744;SDS011;29359;53.048;8.732;2023-03-31T00:34:40;12.48;;;2.75;;
43744;SDS011;29359;53.048;8.732;2023-03-31T00:36:42;12.32;;;2.80;;
43744;SDS011;29359;53.048;8.732;2023-03-31T00:38:49;9.65;;;2.60;;
43744;SDS011;29359;53.048;8.732;2023-03-31T00:40:51;11.05;;;2.88;;
43744;SDS011;29359;53.048;8.732;2023-03-31T00:42:54;11.52;;;3.20;;
43744;SDS011;29359;53.048;8.732;2023-03-31T00:47:16;11.82;;;2.88;;
43744;SDS011;29359;53.048;8.732;2023-03-31T00:49:40;7.78;;;2.50;;
43744;SDS011;29359;53.048;8.732;2023-03-31T00:51:45;8.68;;;2.85;;
43744;SDS011;29359;53.048;8.732;2023-03-31T00:53:52;13.18;;;3.17;;
43744;SDS011;29359;53.048;8.732;2023-03-31T00:56:10;7.65;;;3.45;;
43744;SDS011;29359;53.048;8.732;2023-03-31T00:58:14;9.95;;;2.83;;
43744;SDS011;29359;53.048;8.732;2023-03-31T01:00:20;12.32;;;4.00;;
43744;SDS011;29359;53.048;8.732;2023-03-31T01:02:24;9.80;;;2.30;;
43744;SDS011;29359;53.048;8.732;2023-03-31T01:04:26;12.98;;;2.88;;
43744;SDS011;29359;53.048;8.732;2023-03-31T01:06:28;13.15;;;2.95;;
43744;SDS011;29359;53.048;8.732;2023-03-31T01:08:32;9.60;;;3.00;;
43744;SDS011;29359;53.048;8.732;2023-03-31T01:10:38;12.23;;;2.42;;
43744;SDS011;29359;53.048;8.732;2023-03-31T01:12:45;10.25;;;3.33;;
43744;SDS011;29359;53.048;8.732;2023-03-31T01:14:48;10.07;;;2.78;;
43744;SDS011;29359;53.048;8.732;2023-03-31T01:16:51;10.15;;;2.38;;
43744;SDS011;29359;53.048;8.732;2023-03-31T01:18:53;13.57;;;2.75;;
43744;SDS011;29359;53.048;8.732;2023-03-31T01:26:02;11.32;;;2.97;;
43744;SDS011;29359;53.048;8.732;2023-03-31T01:30:47;11.23;;;3.03;;
43744;SDS011;29359;53.048;8.732;2023-03-31T01:33:32;9.98;;;2.85;;
43744;SDS011;29359;53.048;8.732;2023-03-31T01:38:14;10.25;;;2.60;;
43744;SDS011;29359;53.048;8.732;2023-03-31T01:55:17;14.18;;;3.00;;
43744;SDS011;29359;53.048;8.732;2023-03-31T02:04:37;11.77;;;2.70;;
43744;SDS011;29359;53.048;8.732;2023-03-31T02:06:44;8.75;;;2.60;;
43744;SDS011;29359;53.048;8.732;2023-03-31T02:08:54;9.63;;;2.53;;
43744;SDS011;29359;53.048;8.732;2023-03-31T02:11:01;11.90;;;3.17;;
43744;SDS011;29359;53.048;8.732;2023-03-31T02:13:03;7.22;;;2.50;;
43744;SDS011;29359;53.048;8.732;2023-03-31T02:15:07;6.78;;;2.50;;
43744;SDS011;29359;53.048;8.732;2023-03-31T02:17:16;15.77;;;3.25;;
43744;SDS011;29359;53.048;8.732;2023-03-31T02:19:20;9.63;;;2.97;;
43744;SDS011;29359;53.048;8.732;2023-03-31T02:21:23;13.40;;;2.90;;
43744;SDS011;29359;53.048;8.732;2023-03-31T02:23:26;12.45;;;2.97;;
43744;SDS011;29359;53.048;8.732;2023-03-31T02:25:34;14.63;;;2.95;;
43744;SDS011;29359;53.048;8.732;2023-03-31T02:27:42;19.40;;;3.22;;
43744;SDS011;29359;53.048;8.732;2023-03-31T02:29:48;11.02;;;3.40;;
43744;SDS011;29359;53.048;8.732;2023-03-31T02:34:16;13.07;;;3.63;;
43744;SDS011;29359;53.048;8.732;2023-03-31T02:36:18;8.20;;;2.80;;
43744;SDS011;29359;53.048;8.732;2023-03-31T02:38:21;12.98;;;3.22;;
43744;SDS011;29359;53.048;8.732;2023-03-31T02:40:23;11.10;;;3.03;;
43744;SDS011;29359;53.048;8.732;2023-03-31T02:42:27;8.10;;;2.92;;
43744;SDS011;29359;53.048;8.732;2023-03-31T02:44:29;11.98;;;3.10;;
43744;SDS011;29359;53.048;8.732;2023-03-31T02:46:31;9.80;;;2.58;;
43744;SDS011;29359;53.048;8.732;2023-03-31T02:48:35;8.85;;;2.35;;
43744;SDS011;29359;53.048;8.732;2023-03-31T02:50:45;9.07;;;2.38;;
43744;SDS011;29359;53.048;8.732;2023-03-31T02:53:02;13.07;;;3.00;;
43744;SDS011;29359;53.048;8.732;2023-03-31T02:55:28;11.65;;;2.72;;
43744;SDS011;29359;53.048;8.732;2023-03-31T03:02:43;13.15;;;2.53;;
43744;SDS011;29359;53.048;8.732;2023-03-31T03:07:23;8.57;;;2.50;;
43744;SDS011;29359;53.048;8.732;2023-03-31T03:09:47;11.60;;;2.80;;
43744;SDS011;29359;53.048;8.732;2023-03-31T03:19:06;14.30;;;2.63;;
43744;SDS011;29359;53.048;8.732;2023-03-31T03:21:07;11.63;;;2.22;;
43744;SDS011;29359;53.048;8.732;2023-03-31T03:23:08;11.82;;;2.50;;
43744;SDS011;29359;53.048;8.732;2023-03-31T03:25:11;7.30;;;1.98;;
43744;SDS011;29359;53.048;8.732;2023-03-31T03:27:14;9.15;;;2.28;;
43744;SDS011;29359;53.048;8.732;2023-03-31T03:29:16;10.90;;;2.25;;
43744;SDS011;29359;53.048;8.732;2023-03-31T03:31:17;10.40;;;2.75;;
43744;SDS011;29359;53.048;8.732;2023-03-31T03:33:19;9.45;;;2.30;;
43744;SDS011;29359;53.048;8.732;2023-03-31T03:35:25;8.23;;;2.47;;
43744;SDS011;29359;53.048;8.732;2023-03-31T03:37:26;10.60;;;2.78;;
43744;SDS011;29359;53.048;8.732;2023-03-31T03:39:28;7.50;;;1.83;;
43744;SDS011;29359;53.048;8.732;2023-03-31T03:41:30;10.25;;;2.38;;
43744;SDS011;29359;53.048;8.732;2023-03-31T03:43:33;11.90;;;2.80;;
43744;SDS011;29359;53.048;8.732;2023-03-31T03:45:35;11.95;;;2.90;;
43744;SDS011;29359;53.048;8.732;2023-03-31T03:47:36;11.40;;;2.40;;
43744;SDS011;29359;53.048;8.732;2023-03-31T03:49:38;14.05;;;2.83;;
43744;SDS011;29359;53.048;8.732;2023-03-31T03:51:39;8.38;;;2.10;;
43744;SDS011;29359;53.048;8.732;2023-03-31T03:53:41;12.68;;;2.55;;
43744;SDS011;29359;53.048;8.732;2023-03-31T03:55:42;12.35;;;2.42;;
43744;SDS011;29359;53.048;8.732;2023-03-31T03:57:45;10.38;;;3.10;;
43744;SDS011;29359;53.048;8.732;2023-03-31T03:59:46;9.82;;;2.25;;
43744;SDS011;29359;53.048;8.732;2023-03-31T04:01:48;8.18;;;2.30;;
43744;SDS011;29359;53.048;8.732;2023-03-31T04:03:49;9.20;;;2.38;;
43744;SDS011;29359;53.048;8.732;2023-03-31T04:05:51;9.85;;;2.17;;
43744;SDS011;29359;53.048;8.732;2023-03-31T04:07:52;10.82;;;2.00;;
43744;SDS011;29359;53.048;8.732;2023-03-31T04:09:54;12.13;;;2.92;;
43744;SDS011;29359;53.048;8.732;2023-03-31T04:11:55;12.57;;;2.42;;
43744;SDS011;29359;53.048;8.732;2023-03-31T04:13:57;9.63;;;2.33;;
43744;SDS011;29359;53.048;8.732;2023-03-31T04:15:59;15.25;;;2.90;;
43744;SDS011;29359;53.048;8.732;2023-03-31T04:18:00;8.70;;;1.83;;
43744;SDS011;29359;53.048;8.732;2023-03-31T04:20:03;11.18;;;2.13;;
43744;SDS011;29359;53.048;8.732;2023-03-31T04:22:09;10.27;;;2.33;;
43744;SDS011;29359;53.048;8.732;2023-03-31T04:24:11;6.07;;;1.88;;
43744;SDS011;29359;53.048;8.732;2023-03-31T04:26:16;9.55;;;2.40;;
43744;SDS011;29359;53.048;8.732;2023-03-31T04:28:18;7.65;;;2.05;;
43744;SDS011;29359;53.048;8.732;2023-03-31T04:30:20;14.77;;;3.47;;
43744;SDS011;29359;53.048;8.732;2023-03-31T04:32:23;8.57;;;2.42;;
43744;SDS011;29359;53.048;8.732;2023-03-31T04:34:25;10.73;;;2.28;;
43744;SDS011;29359;53.048;8.732;2023-03-31T04:36:35;12.05;;;2.78;;
43744;SDS011;29359;53.048;8.732;2023-03-31T04:38:46;10.13;;;2.97;;
43744;SDS011;29359;53.048;8.732;2023-03-31T04:40:51;12.25;;;3.10;;
43744;SDS011;29359;53.048;8.732;2023-03-31T04:42:53;15.65;;;3.17;;
43744;SDS011;29359;53.048;8.732;2023-03-31T04:44:55;12.30;;;3.47;;
43744;SDS011;29359;53.048;8.732;2023-03-31T04:46:56;12.55;;;3.53;;
43744;SDS011;29359;53.048;8.732;2023-03-31T04:48:59;12.27;;;3.30;;
43744;SDS011;29359;53.048;8.732;2023-03-31T04:51:01;9.60;;;3.67;;
43744;SDS011;29359;53.048;8.732;2023-03-31T04:53:03;11.32;;;3.90;;
43744;SDS011;29359;53.048;8.732;2023-03-31T04:55:06;11.95;;;4.13;;
43744;SDS011;29359;53.048;8.732;2023-03-31T04:57:08;14.90;;;4.53;;
43744;SDS011;29359;53.048;8.732;2023-03-31T04:59:09;9.40;;;3.85;;
43744;SDS011;29359;53.048;8.732;2023-03-31T05:01:11;11.80;;;4.00;;
43744;SDS011;29359;53.048;8.732;2023-03-31T05:03:18;14.07;;;4.35;;
43744;SDS011;29359;53.048;8.732;2023-03-31T05:05:21;14.27;;;4.07;;
43744;SDS011;29359;53.048;8.732;2023-03-31T05:07:23;12.38;;;4.10;;
43744;SDS011;29359;53.048;8.732;2023-03-31T05:09:24;14.55;;;4.38;;
43744;SDS011;29359;53.048;8.732;2023-03-31T05:11:26;14.55;;;4.80;;
43744;SDS011;29359;53.048;8.732;2023-03-31T05:13:29;13.65;;;4.97;;
43744;SDS011;29359;53.048;8.732;2023-03-31T05:15:30;10.13;;;4.45;;
43744;SDS011;29359;53.048;8.732;2023-03-31T05:17:35;11.38;;;5.22;;
43744;SDS011;29359;53.048;8.732;2023-03-31T05:19:37;12.27;;;4.95;;
43744;SDS011;29359;53.048;8.732;2023-03-31T05:21:38;9.52;;;4.95;;
43744;SDS011;29359;53.048;8.732;2023-03-31T05:23:40;10.10;;;4.85;;
43744;SDS011;29359;53.048;8.732;2023-03-31T05:25:41;14.35;;;4.80;;
43744;SDS011;29359;53.048;8.732;2023-03-31T05:27:44;12.02;;;4.50;;
43744;SDS011;29359;53.048;8.732;2023-03-31T05:29:51;11.65;;;5.82;;
43744;SDS011;29359;53.048;8.732;2023-03-31T05:31:52;14.52;;;5.75;;
43744;SDS011;29359;53.048;8.732;2023-03-31T05:33:54;13.40;;;4.93;;
43744;SDS011;29359;53.048;8.732;2023-03-31T05:35:56;16.35;;;5.32;;
43744;SDS011;29359;53.048;8.732;2023-03-31T05:38:00;11.18;;;4.93;;
43744;SDS011;29359;53.048;8.732;2023-03-31T05:40:02;14.07;;;5.10;;
43744;SDS011;29359;53.048;8.732;2023-03-31T05:42:07;11.98;;;5.68;;
43744;SDS011;29359;53.048;8.732;2023-03-31T05:44:09;12.98;;;5.07;;
43744;SDS011;29359;53.048;8.732;2023-03-31T05:46:11;12.60;;;5.18;;
43744;SDS011;29359;53.048;8.732;2023-03-31T05:48:12;10.60;;;5.50;;
43744;SDS011;29359;53.048;8.732;2023-03-31T05:50:14;11.07;;;5.05;;
43744;SDS011;29359;53.048;8.732;2023-03-31T05:52:16;10.70;;;5.05;;
43744;SDS011;29359;53.048;8.732;2023-03-31T05:54:17;17.33;;;5.95;;
43744;SDS011;29359;53.048;8.732;2023-03-31T05:56:19;13.13;;;5.22;;
43744;SDS011;29359;53.048;8.732;2023-03-31T05:58:22;11.02;;;4.93;;
43744;SDS011;29359;53.048;8.732;2023-03-31T06:00:23;9.43;;;4.78;;
43744;SDS011;29359;53.048;8.732;2023-03-31T06:02:25;11.77;;;5.22;;
43744;SDS011;29359;53.048;8.732;2023-03-31T06:04:27;9.70;;;4.38;;
43744;SDS011;29359;53.048;8.732;2023-03-31T06:06:29;11.05;;;5.05;;
43744;SDS011;29359;53.048;8.732;2023-03-31T06:08:30;10.77;;;5.05;;
43744;SDS011;29359;53.048;8.732;2023-03-31T06:10:32;12.63;;;4.97;;
43744;SDS011;29359;53.048;8.732;2023-03-31T06:12:36;9.40;;;5.00;;
43744;SDS011;29359;53.048;8.732;2023-03-31T06:14:37;9.43;;;5.28;;
43744;SDS011;29359;53.048;8.732;2023-03-31T06:16:39;11.15;;;4.97;;
43744;SDS011;29359;53.048;8.732;2023-03-31T06:18:40;10.23;;;5.30;;
43744;SDS011;29359;53.048;8.732;2023-03-31T06:20:42;12.27;;;5.35;;
43744;SDS011;29359;53.048;8.732;2023-03-31T06:22:44;8.07;;;5.22;;
43744;SDS011;29359;53.048;8.732;2023-03-31T06:24:45;10.52;;;5.75;;
43744;SDS011;29359;53.048;8.732;2023-03-31T06:26:47;9.80;;;5.43;;
43744;SDS011;29359;53.048;8.732;2023-03-31T06:28:48;12.95;;;5.82;;
43744;SDS011;29359;53.048;8.732;2023-03-31T06:30:50;9.55;;;5.28;;
43744;SDS011;29359;53.048;8.732;2023-03-31T06:32:51;15.70;;;5.60;;
43744;SDS011;29359;53.048;8.732;2023-03-31T06:34:53;9.00;;;5.40;;
43744;SDS011;29359;53.048;8.732;2023-03-31T06:36:54;14.75;;;6.00;;
43744;SDS011;29359;53.048;8.732;2023-03-31T06:38:56;14.98;;;5.82;;
43744;SDS011;29359;53.048;8.732;2023-03-31T06:40:58;9.18;;;5.55;;
43744;SDS011;29359;53.048;8.732;2023-03-31T06:42:59;6.82;;;5.00;;
43744;SDS011;29359;53.048;8.732;2023-03-31T06:45:01;11.27;;;5.78;;
43744;SDS011;29359;53.048;8.732;2023-03-31T06:47:03;10.15;;;5.20;;
43744;SDS011;29359;53.048;8.732;2023-03-31T06:49:04;6.35;;;5.07;;
43744;SDS011;29359;53.048;8.732;2023-03-31T06:51:07;7.95;;;4.85;;
43744;SDS011;29359;53.048;8.732;2023-03-31T06:53:09;8.98;;;5.10;;
43744;SDS011;29359;53.048;8.732;2023-03-31T06:55:11;10.23;;;4.93;;
43744;SDS011;29359;53.048;8.732;2023-03-31T06:57:13;10.38;;;4.85;;
43744;SDS011;29359;53.048;8.732;2023-03-31T06:59:15;6.93;;;4.93;;
43744;SDS011;29359;53.048;8.732;2023-03-31T07:01:16;8.93;;;4.88;;
43744;SDS011;29359;53.048;8.732;2023-03-31T07:03:18;9.85;;;4.78;;
43744;SDS011;29359;53.048;8.732;2023-03-31T07:05:22;7.05;;;4.82;;
43744;SDS011;29359;53.048;8.732;2023-03-31T07:07:29;9.52;;;5.32;;
43744;SDS011;29359;53.048;8.732;2023-03-31T07:09:32;9.02;;;5.15;;
43744;SDS011;29359;53.048;8.732;2023-03-31T07:11:34;8.05;;;5.00;;
43744;SDS011;29359;53.048;8.732;2023-03-31T07:13:35;10.82;;;5.03;;
43744;SDS011;29359;53.048;8.732;2023-03-31T07:15:37;9.15;;;5.38;;
43744;SDS011;29359;53.048;8.732;2023-03-31T07:17:38;9.05;;;5.13;;
43744;SDS011;29359;53.048;8.732;2023-03-31T07:19:42;6.40;;;5.20;;
43744;SDS011;29359;53.048;8.732;2023-03-31T07:21:48;6.10;;;4.70;;
43744;SDS011;29359;53.048;8.732;2023-03-31T07:23:50;8.23;;;4.70;;
43744;SDS011;29359;53.048;8.732;2023-03-31T07:25:52;11.35;;;5.40;;
43744;SDS011;29359;53.048;8.732;2023-03-31T07:27:53;7.65;;;4.95;;
43744;SDS011;29359;53.048;8.732;2023-03-31T07:29:54;6.63;;;4.95;;
43744;SDS011;29359;53.048;8.732;2023-03-31T07:31:56;11.32;;;4.80;;
43744;SDS011;29359;53.048;8.732;2023-03-31T07:33:58;7.63;;;4.63;;
43744;SDS011;29359;53.048;8.732;2023-03-31T07:36:02;9.38;;;5.38;;
43744;SDS011;29359;53.048;8.732;2023-03-31T07:38:13;6.72;;;5.32;;
43744;SDS011;29359;53.048;8.732;2023-03-31T07:40:17;6.88;;;5.00;;
43744;SDS011;29359;53.048;8.732;2023-03-31T07:42:21;12.63;;;5.80;;
43744;SDS011;29359;53.048;8.732;2023-03-31T07:44:23;9.00;;;5.28;;
43744;SDS011;29359;53.048;8.732;2023-03-31T07:46:25;6.50;;;4.90;;
43744;SDS011;29359;53.048;8.732;2023-03-31T07:48:28;8.23;;;5.13;;
43744;SDS011;29359;53.048;8.732;2023-03-31T07:50:30;9.07;;;5.20;;
43744;SDS011;29359;53.048;8.732;2023-03-31T07:52:31;9.20;;;6.20;;
43744;SDS011;29359;53.048;8.732;2023-03-31T07:54:33;8.18;;;5.28;;
43744;SDS011;29359;53.048;8.732;2023-03-31T07:56:34;7.13;;;4.95;;
43744;SDS011;29359;53.048;8.732;2023-03-31T07:58:36;8.75;;;5.25;;
43744;SDS011;29359;53.048;8.732;2023-03-31T08:00:38;7.53;;;5.22;;
43744;SDS011;29359;53.048;8.732;2023-03-31T08:02:39;8.40;;;5.40;;
43744;SDS011;29359;53.048;8.732;2023-03-31T08:04:43;7.63;;;5.72;;
43744;SDS011;29359;53.048;8.732;2023-03-31T08:06:45;10.35;;;5.65;;
43744;SDS011;29359;53.048;8.732;2023-03-31T08:08:48;7.18;;;5.07;;
43744;SDS011;29359;53.048;8.732;2023-03-31T08:10:50;7.53;;;4.78;;
43744;SDS011;29359;53.048;8.732;2023-03-31T08:12:52;7.07;;;5.53;;
43744;SDS011;29359;53.048;8.732;2023-03-31T08:14:53;7.03;;;4.40;;
43744;SDS011;29359;53.048;8.732;2023-03-31T08:16:55;4.82;;;4.18;;
43744;SDS011;29359;53.048;8.732;2023-03-31T08:18:58;7.40;;;4.05;;
43744;SDS011;29359;53.048;8.732;2023-03-31T08:20:59;6.38;;;4.43;;
43744;SDS011;29359;53.048;8.732;2023-03-31T08:23:01;10.23;;;5.18;;
43744;SDS011;29359;53.048;8.732;2023-03-31T08:25:03;7.63;;;5.00;;
43744;SDS011;29359;53.048;8.732;2023-03-31T08:27:05;5.40;;;4.50;;
43744;SDS011;29359;53.048;8.732;2023-03-31T08:29:12;6.82;;;4.90;;
43744;SDS011;29359;53.048;8.732;2023-03-31T08:31:14;11.70;;;4.78;;
43744;SDS011;29359;53.048;8.732;2023-03-31T08:33:17;6.45;;;4.10;;
43744;SDS011;29359;53.048;8.732;2023-03-31T08:35:19;4.85;;;3.90;;
43744;SDS011;29359;53.048;8.732;2023-03-31T08:37:21;8.73;;;3.60;;
43744;SDS011;29359;53.048;8.732;2023-03-31T08:39:22;5.68;;;4.10;;
43744;SDS011;29359;53.048;8.732;2023-03-31T08:41:43;7.85;;;3.72;;
43744;SDS011;29359;53.048;8.732;2023-03-31T08:43:47;8.57;;;4.43;;
43744;SDS011;29359;53.048;8.732;2023-03-31T08:45:50;7.72;;;3.17;;
43744;SDS011;29359;53.048;8.732;2023-03-31T08:47:55;6.90;;;3.63;;
43744;SDS011;29359;53.048;8.732;2023-03-31T08:50:11;6.18;;;3.13;;
43744;SDS011;29359;53.048;8.732;2023-03-31T08:52:37;9.00;;;3.25;;
43744;SDS011;29359;53.048;8.732;2023-03-31T08:54:45;7.35;;;3.25;;
43744;SDS011;29359;53.048;8.732;2023-03-31T08:56:50;7.38;;;3.20;;
43744;SDS011;29359;53.048;8.732;2023-03-31T08:58:52;7.15;;;3.22;;
43744;SDS011;29359;53.048;8.732;2023-03-31T09:00:58;9.98;;;4.00;;
43744;SDS011;29359;53.048;8.732;2023-03-31T09:03:13;10.10;;;3.45;;
43744;SDS011;29359;53.048;8.732;2023-03-31T09:12:20;6.68;;;2.97;;
43744;SDS011;29359;53.048;8.732;2023-03-31T09:14:37;7.93;;;2.88;;
43744;SDS011;29359;53.048;8.732;2023-03-31T09:19:32;8.30;;;2.58;;
43744;SDS011;29359;53.048;8.732;2023-03-31T09:21:53;4.25;;;2.28;;
43744;SDS011;29359;53.048;8.732;2023-03-31T09:24:07;4.63;;;1.92;;
43744;SDS011;29359;53.048;8.732;2023-03-31T09:26:19;4.75;;;2.30;;
43744;SDS011;29359;53.048;8.732;2023-03-31T09:28:29;6.35;;;2.40;;
43744;SDS011;29359;53.048;8.732;2023-03-31T09:30:35;9.67;;;2.50;;
43744;SDS011;29359;53.048;8.732;2023-03-31T09:32:38;6.07;;;2.40;;
43744;SDS011;29359;53.048;8.732;2023-03-31T09:34:40;5.82;;;2.35;;
43744;SDS011;29359;53.048;8.732;2023-03-31T09:36:41;6.32;;;2.53;;
43744;SDS011;29359;53.048;8.732;2023-03-31T09:38:44;5.70;;;2.22;;
43744;SDS011;29359;53.048;8.732;2023-03-31T09:40:46;5.07;;;2.25;;
43744;SDS011;29359;53.048;8.732;2023-03-31T09:43:05;7.00;;;2.22;;
43744;SDS011;29359;53.048;8.732;2023-03-31T09:45:15;6.18;;;2.20;;
43744;SDS011;29359;53.048;8.732;2023-03-31T09:47:20;6.00;;;2.95;;
43744;SDS011;29359;53.048;8.732;2023-03-31T09:49:33;4.18;;;2.20;;
43744;SDS011;29359;53.048;8.732;2023-03-31T09:51:37;4.07;;;2.30;;
43744;SDS011;29359;53.048;8.732;2023-03-31T09:53:50;6.65;;;2.10;;
43744;SDS011;29359;53.048;8.732;2023-03-31T09:55:59;6.70;;;2.90;;
43744;SDS011;29359;53.048;8.732;2023-03-31T09:58:05;6.43;;;2.17;;
43744;SDS011;29359;53.048;8.732;2023-03-31T10:04:43;8.23;;;2.47;;
43744;SDS011;29359;53.048;8.732;2023-03-31T10:06:47;6.30;;;1.80;;
43744;SDS011;29359;53.048;8.732;2023-03-31T10:13:06;5.93;;;1.83;;
43744;SDS011;29359;53.048;8.732;2023-03-31T10:15:13;4.65;;;1.83;;
43744;SDS011;29359;53.048;8.732;2023-03-31T10:17:21;6.93;;;2.38;;
43744;SDS011;29359;53.048;8.732;2023-03-31T10:19:28;5.95;;;2.05;;
43744;SDS011;29359;53.048;8.732;2023-03-31T10:21:34;7.30;;;1.83;;
43744;SDS011;29359;53.048;8.732;2023-03-31T10:23:38;4.63;;;1.33;;
43744;SDS011;29359;53.048;8.732;2023-03-31T10:25:47;9.55;;;2.95;;
43744;SDS011;29359;53.048;8.732;2023-03-31T10:27:53;5.97;;;2.17;;
43744;SDS011;29359;53.048;8.732;2023-03-31T10:29:56;8.45;;;1.92;;
43744;SDS011;29359;53.048;8.732;2023-03-31T10:32:03;6.15;;;1.63;;
43744;SDS011;29359;53.048;8.732;2023-03-31T10:34:29;7.10;;;1.38;;
43744;SDS011;29359;53.048;8.732;2023-03-31T10:36:32;5.25;;;1.40;;
43744;SDS011;29359;53.048;8.732;2023-03-31T10:38:36;5.00;;;1.92;;
43744;SDS011;29359;53.048;8.732;2023-03-31T10:40:52;7.57;;;1.85;;
43744;SDS011;29359;53.048;8.732;2023-03-31T10:47:38;5.00;;;1.73;;
43744;SDS011;29359;53.048;8.732;2023-03-31T10:49:42;8.07;;;1.70;;
43744;SDS011;29359;53.048;8.732;2023-03-31T10:51:48;5.60;;;1.80;;
43744;SDS011;29359;53.048;8.732;2023-03-31T10:53:55;3.45;;;1.50;;
43744;SDS011;29359;53.048;8.732;2023-03-31T11:01:10;4.57;;;1.70;;
43744;SDS011;29359;53.048;8.732;2023-03-31T11:03:28;5.50;;;1.48;;
43744;SDS011;29359;53.048;8.732;2023-03-31T11:05:56;2.95;;;1.35;;
43744;SDS011;29359;53.048;8.732;2023-03-31T11:15:48;3.63;;;1.42;;
43744;SDS011;29359;53.048;8.732;2023-03-31T11:20:29;4.10;;;1.70;;
43744;SDS011;29359;53.048;8.732;2023-03-31T11:22:38;4.00;;;1.38;;
43744;SDS011;29359;53.048;8.732;2023-03-31T11:24:56;3.97;;;1.80;;
43744;SDS011;29359;53.048;8.732;2023-03-31T11:29:40;2.25;;;1.35;;
43744;SDS011;29359;53.048;8.732;2023-03-31T11:34:22;3.58;;;1.38;;
43744;SDS011;29359;53.048;8.732;2023-03-31T11:38:58;2.47;;;0.98;;
43744;SDS011;29359;53.048;8.732;2023-03-31T11:41:07;2.83;;;1.13;;
43744;SDS011;29359;53.048;8.732;2023-03-31T11:43:33;1.25;;;1.00;;
43744;SDS011;29359;53.048;8.732;2023-03-31T11:45:41;3.20;;;0.80;;
43744;SDS011;29359;53.048;8.732;2023-03-31T11:47:51;1.23;;;0.55;;
43744;SDS011;29359;53.048;8.732;2023-03-31T11:49:58;2.00;;;1.57;;
43744;SDS011;29359;53.048;8.732;2023-03-31T11:52:17;0.57;;;0.45;;
43744;SDS011;29359;53.048;8.732;2023-03-31T11:54:24;1.37;;;0.30;;
43744;SDS011;29359;53.048;8.732;2023-03-31T11:56:35;0.35;;;0.22;;
43744;SDS011;29359;53.048;8.732;2023-03-31T12:00:51;0.95;;;0.32;;
43744;SDS011;29359;53.048;8.732;2023-03-31T12:03:20;1.10;;;0.40;;
43744;SDS011;29359;53.048;8.732;2023-03-31T12:05:23;1.67;;;0.77;;
43744;SDS011;29359;53.048;8.732;2023-03-31T12:07:40;0.43;;;0.40;;
43744;SDS011;29359;53.048;8.732;2023-03-31T12:12:22;1.17;;;0.50;;
43744;SDS011;29359;53.048;8.732;2023-03-31T12:16:46;1.40;;;0.63;;
43744;SDS011;29359;53.048;8.732;2023-03-31T12:18:59;0.90;;;0.47;;
43744;SDS011;29359;53.048;8.732;2023-03-31T12:21:07;2.15;;;0.77;;
43744;SDS011;29359;53.048;8.732;2023-03-31T12:23:12;1.27;;;0.38;;
43744;SDS011;29359;53.048;8.732;2023-03-31T12:25:21;1.80;;;0.77;;
43744;SDS011;29359;53.048;8.732;2023-03-31T12:27:28;2.05;;;0.70;;
43744;SDS011;29359;53.048;8.732;2023-03-31T12:29:52;1.13;;;0.52;;
43744;SDS011;29359;53.048;8.732;2023-03-31T12:32:00;1.35;;;0.47;;
43744;SDS011;29359;53.048;8.732;2023-03-31T12:34:09;1.25;;;0.82;;
43744;SDS011;29359;53.048;8.732;2023-03-31T12:41:16;0.73;;;0.47;;
43744;SDS011;29359;53.048;8.732;2023-03-31T12:55:22;5.03;;;0.70;;
43744;SDS011;29359;53.048;8.732;2023-03-31T12:57:32;2.25;;;0.88;;
43744;SDS011;29359;53.048;8.732;2023-03-31T12:59:35;2.60;;;1.00;;
43744;SDS011;29359;53.048;8.732;2023-03-31T13:04:20;1.17;;;0.60;;
43744;SDS011;29359;53.048;8.732;2023-03-31T13:10:57;4.57;;;0.80;;
43744;SDS011;29359;53.048;8.732;2023-03-31T13:13:11;1.98;;;0.63;;
43744;SDS011;29359;53.048;8.732;2023-03-31T13:15:14;0.52;;;0.50;;
43744;SDS011;29359;53.048;8.732;2023-03-31T13:19:32;1.02;;;0.65;;
43744;SDS011;29359;53.048;8.732;2023-03-31T13:23:58;1.08;;;0.50;;
43744;SDS011;29359;53.048;8.732;2023-03-31T13:26:02;2.13;;;0.80;;
43744;SDS011;29359;53.048;8.732;2023-03-31T13:28:13;1.25;;;0.63;;
43744;SDS011;29359;53.048;8.732;2023-03-31T13:32:37;0.75;;;0.70;;
43744;SDS011;29359;53.048;8.732;2023-03-31T13:34:41;1.30;;;0.70;;
43744;SDS011;29359;53.048;8.732;2023-03-31T13:46:50;3.38;;;0.93;;
43744;SDS011;29359;53.048;8.732;2023-03-31T13:56:33;1.10;;;0.82;;
43744;SDS011;29359;53.048;8.732;2023-03-31T14:09:07;3.55;;;0.70;;
43744;SDS011;29359;53.048;8.732;2023-03-31T14:11:16;1.50;;;0.80;;
43744;SDS011;29359;53.048;8.732;2023-03-31T14:13:23;1.80;;;0.65;;
43744;SDS011;29359;53.048;8.732;2023-03-31T14:15:26;3.85;;;1.83;;
43744;SDS011;29359;53.048;8.732;2023-03-31T14:17:34;4.22;;;1.48;;
43744;SDS011;29359;53.048;8.732;2023-03-31T14:24:38;3.20;;;0.70;;
43744;SDS011;29359;53.048;8.732;2023-03-31T14:29:30;2.10;;;0.88;;
43744;SDS011;29359;53.048;8.732;2023-03-31T14:32:01;1.90;;;0.80;;
43744;SDS011;29359;53.048;8.732;2023-03-31T14:36:31;1.95;;;1.00;;
43744;SDS011;29359;53.048;8.732;2023-03-31T14:38:38;3.08;;;0.95;;
43744;SDS011;29359;53.048;8.732;2023-03-31T14:40:44;2.90;;;0.80;;
43744;SDS011;29359;53.048;8.732;2023-03-31T14:42:48;3.05;;;0.75;;
43744;SDS011;29359;53.048;8.732;2023-03-31T14:44:53;3.15;;;1.00;;
43744;SDS011;29359;53.048;8.732;2023-03-31T14:46:56;2.30;;;1.02;;
43744;SDS011;29359;53.048;8.732;2023-03-31T14:49:04;4.43;;;1.17;;
43744;SDS011;29359;53.048;8.732;2023-03-31T14:51:29;3.92;;;1.30;;
43744;SDS011;29359;53.048;8.732;2023-03-31T14:53:31;3.90;;;1.10;;
43744;SDS011;29359;53.048;8.732;2023-03-31T14:55:32;3.40;;;1.92;;
43744;SDS011;29359;53.048;8.732;2023-03-31T14:57:54;4.07;;;1.55;;
43744;SDS011;29359;53.048;8.732;2023-03-31T14:59:58;4.45;;;1.40;;
43744;SDS011;29359;53.048;8.732;2023-03-31T15:02:05;2.55;;;0.93;;
43744;SDS011;29359;53.048;8.732;2023-03-31T15:04:16;2.47;;;1.10;;
43744;SDS011;29359;53.048;8.732;2023-03-31T15:06:39;3.95;;;1.20;;
43744;SDS011;29359;53.048;8.732;2023-03-31T15:08:42;3.80;;;0.90;;
43744;SDS011;29359;53.048;8.732;2023-03-31T15:10:46;4.05;;;0.98;;
43744;SDS011;29359;53.048;8.732;2023-03-31T15:13:14;4.20;;;1.33;;
43744;SDS011;29359;53.048;8.732;2023-03-31T15:15:20;6.55;;;3.60;;
43744;SDS011;29359;53.048;8.732;2023-03-31T15:17:24;5.28;;;2.30;;
43744;SDS011;29359;53.048;8.732;2023-03-31T15:19:30;2.40;;;0.98;;
43744;SDS011;29359;53.048;8.732;2023-03-31T15:21:35;4.07;;;1.98;;
43744;SDS011;29359;53.048;8.732;2023-03-31T15:23:39;10.98;;;8.07;;
43744;SDS011;29359;53.048;8.732;2023-03-31T15:25:40;4.50;;;1.48;;
43744;SDS011;29359;53.048;8.732;2023-03-31T15:27:45;2.92;;;1.23;;